createdAt,value
2022-08-01T00:03:44.515Z,100585.00
2022-08-01T00:06:20.456Z,100481.94
2022-08-01T00:17:50.398Z,100442.19
2022-08-01T00:21:30.728Z,100407.31
2022-08-01T00:29:05.188Z,100594.28
2022-08-01T00:54:10.823Z,100561.69
2022-08-01T01:01:20.504Z,100320.06
2022-08-01T01:04:12.673Z,100441.50
2022-08-01T01:07:58.790Z,100337.88
2022-08-01T01:11:06.695Z,100339.69
2022-08-01T01:15:09.773Z,100496.47
2022-08-01T01:19:07.580Z,100608.97
2022-08-01T01:22:35.287Z,100596.50
2022-08-01T01:25:42.071Z,100599.81
2022-08-01T01:29:20.220Z,100327.22
2022-08-01T01:33:11.135Z,100325.38
2022-08-01T01:40:19.306Z,100610.22
2022-08-01T01:47:26.151Z,100463.44
2022-08-01T01:54:30.585Z,100609.38
2022-08-01T01:57:39.647Z,100391.66
2022-08-01T02:01:15.359Z,100426.41
2022-08-01T02:05:20.091Z,100317.09
2022-08-01T02:09:07.153Z,100345.81
2022-08-01T02:15:28.410Z,100443.47
2022-08-01T02:19:17.074Z,100351.53
2022-08-01T02:22:59.461Z,100466.72
2022-08-01T02:26:17.270Z,100600.53
2022-08-01T02:29:39.491Z,100600.78
2022-08-01T02:36:50.542Z,100351.28
2022-08-01T02:46:58.468Z,100628.56
2022-08-01T02:50:07.463Z,100444.66
2022-08-01T02:58:00.885Z,100336.47
2022-08-01T03:04:41.777Z,100365.09
2022-08-01T03:17:08.782Z,100627.97
2022-08-01T03:20:37.148Z,100362.66
2022-08-01T03:28:02.949Z,100548.13
2022-08-01T03:31:23.874Z,100451.91
2022-08-01T03:34:27.093Z,100362.78
2022-08-01T03:38:20.282Z,100621.63
2022-08-01T03:50:28.483Z,100624.38
2022-08-01T03:58:16.701Z,100459.84
2022-08-01T04:04:56.701Z,100501.72
2022-08-01T04:16:50.317Z,100362.00
2022-08-01T04:43:23.260Z,100385.25
2022-08-01T04:46:41.681Z,100641.41
2022-08-01T04:53:40.628Z,100553.91
2022-08-01T04:57:32.525Z,100549.03
2022-08-01T05:00:41.934Z,100408.84
2022-08-01T05:12:20.263Z,100638.03
2022-08-01T07:04:00.780Z,100507.00
2022-08-01T07:25:52.704Z,100583.59
2022-08-01T07:28:20.821Z,100685.94
2022-08-01T07:30:48.578Z,100674.94
2022-08-01T07:33:16.682Z,100700.13
2022-08-01T07:35:44.551Z,100699.75
2022-08-01T07:38:12.964Z,100703.81
2022-08-01T07:40:42.379Z,100697.56
2022-08-01T07:43:38.906Z,100700.41
2022-08-01T07:57:08.759Z,100689.84
2022-08-01T08:08:03.809Z,100678.06
2022-08-01T08:10:55.740Z,100658.97
2022-08-01T08:13:24.374Z,100698.03
2022-08-01T08:15:55.049Z,100621.44
2022-08-01T08:18:23.320Z,100612.16
2022-08-01T09:47:40.958Z,100730.94
2022-08-01T09:50:11.812Z,100587.66
2022-08-01T09:52:41.152Z,100656.56
2022-08-01T09:55:10.129Z,100664.31
2022-08-01T10:17:04.925Z,100714.31
2022-08-01T10:50:58.442Z,100679.00
2022-08-01T10:53:31.748Z,100578.69
2022-08-01T10:56:13.047Z,100677.66
2022-08-01T10:58:45.825Z,100591.81
2022-08-01T11:01:26.249Z,100685.22
2022-08-01T11:04:11.422Z,100646.78
2022-08-01T11:14:12.276Z,100679.72
2022-08-01T11:16:41.891Z,100673.84
2022-08-01T11:19:11.688Z,100693.47
2022-08-01T11:22:05.013Z,100488.63
2022-08-01T11:24:57.793Z,100683.19
2022-08-01T11:27:29.314Z,100575.31
2022-08-01T11:30:31.154Z,100677.63
2022-08-01T11:33:10.985Z,100462.22
2022-08-01T11:36:00.756Z,100536.16
2022-08-01T11:38:31.160Z,100525.56
2022-08-01T11:41:15.002Z,100644.69
2022-08-01T11:43:57.510Z,100530.53
2022-08-01T11:46:55.292Z,100674.22
2022-08-01T11:49:50.072Z,100600.28
2022-08-01T12:25:26.182Z,100693.81
2022-08-01T12:27:56.498Z,100684.09
2022-08-01T12:30:25.934Z,100683.75
2022-08-01T12:32:56.875Z,100685.13
2022-08-01T12:35:27.293Z,100678.75
2022-08-01T12:37:57.831Z,100685.59
2022-08-01T13:32:35.275Z,100683.00
2022-08-01T16:37:35.467Z,100668.66
2022-08-01T17:29:43.582Z,100682.16
2022-08-01T17:32:13.088Z,100686.28
2022-08-01T17:34:41.018Z,100692.53
2022-08-01T17:37:09.994Z,100681.88
2022-08-01T17:39:39.324Z,100691.19
2022-08-01T18:09:32.895Z,100720.13
2022-08-01T18:21:38.567Z,100713.91
2022-08-01T18:24:09.457Z,100714.22
2022-08-01T18:26:38.936Z,100720.13
2022-08-01T18:29:07.545Z,100734.22
2022-08-01T18:31:35.603Z,100728.81
2022-08-01T18:34:03.749Z,100729.41
2022-08-01T18:36:34.305Z,100735.63
2022-08-01T18:39:05.561Z,100725.19
2022-08-01T18:41:34.341Z,100738.41
2022-08-01T18:44:07.922Z,100743.22
2022-08-01T18:46:37.355Z,100746.31
2022-08-01T18:49:06.416Z,100741.53
2022-08-01T18:51:34.234Z,100748.66
2022-08-01T18:54:02.326Z,100761.63
2022-08-01T18:56:30.216Z,100730.56
2022-08-01T19:11:33.145Z,100741.38
2022-08-01T19:27:51.034Z,100782.72
2022-08-01T19:30:20.191Z,100793.34
2022-08-01T20:01:47.521Z,100830.38
2022-08-01T20:04:16.870Z,100831.13
2022-08-01T20:06:44.802Z,100834.25
2022-08-01T20:09:13.895Z,100841.91
2022-08-01T20:11:44.772Z,100811.50
2022-08-01T20:14:14.835Z,100840.00
2022-08-01T20:16:43.532Z,100837.88
2022-08-01T20:19:13.227Z,100843.69
2022-08-01T20:21:43.927Z,100833.81
2022-08-01T20:34:43.065Z,100845.94
2022-08-01T20:38:24.419Z,100659.66
2022-08-01T20:45:54.415Z,100633.63
2022-08-01T20:53:23.354Z,100798.28
2022-08-01T21:01:00.228Z,100767.84
2022-08-01T21:08:57.769Z,100867.78
2022-08-01T21:12:07.646Z,100601.91
2022-08-01T21:36:06.784Z,100872.69
2022-08-01T21:39:56.909Z,100611.19
2022-08-01T21:44:03.655Z,100549.09
2022-08-01T21:47:03.791Z,100757.88
2022-08-01T21:49:51.245Z,100593.25
2022-08-01T21:53:11.547Z,100866.47
2022-08-01T22:22:51.940Z,100702.88
2022-08-01T22:25:59.045Z,100888.38
2022-08-01T22:33:23.357Z,100890.38
2022-08-01T22:37:57.486Z,100613.44
2022-08-01T22:42:34.206Z,100654.22
2022-08-01T22:46:27.855Z,100894.63
2022-08-01T22:50:15.846Z,100618.91
2022-08-01T23:20:56.689Z,100900.78
2022-08-01T23:23:31.374Z,100910.56
2022-08-01T23:26:02.159Z,100658.81
2022-08-01T23:28:30.615Z,100859.47
2022-08-01T23:31:00.653Z,100786.19
2022-08-01T23:33:28.655Z,100891.72
2022-08-01T23:35:58.494Z,100731.69
2022-08-01T23:38:26.581Z,100772.00
2022-08-01T23:40:55.539Z,100777.31
2022-08-01T23:43:24.320Z,100877.16
2022-08-01T23:46:04.246Z,100905.28
2022-08-01T23:48:34.450Z,100789.91
2022-08-01T23:51:05.090Z,100753.78
2022-08-01T23:53:38.649Z,100903.28
2022-08-01T23:56:08.303Z,100900.03
2022-08-01T23:58:36.424Z,100902.81
